Time;durP1;ratioP1;P1;durP2;ratioP2;P2;SDS_P1;SDS_P2;PMS_P1;PMS_P2;Temp;Humidity;BMP_temperature;BMP_pressure;BME280_temperature;BME280_humidity;BME280_pressure;Samples;Min_cycle;Max_cycle;Signal;HPM_P1;HPM_P2
2022/10/28 00:01:08;;;;;;;83.97;24.57;;;;;;;;;;772360;177;908083;-67
2022/10/28 00:03:34;;;;;;;113.03;24.83;;;;;;;;;;767333;181;910384;-66
2022/10/28 00:06:04;;;;;;;129.90;25.30;;;;;;;;;;774295;180;892763;-67
2022/10/28 00:08:30;;;;;;;150.73;25.17;;;;;;;;;;770342;181;919216;-70
2022/10/28 00:11:01;;;;;;;101.77;23.97;;;;;;;;;;773750;177;941228;-66
2022/10/28 00:13:27;;;;;;;98.33;23.33;;;;;;;;;;772809;179;913906;-70
2022/10/28 00:15:53;;;;;;;138.80;25.13;;;;;;;;;;782460;177;919926;-70
2022/10/28 00:18:19;;;;;;;160.13;24.20;;;;;;;;;;773016;178;919828;-67
2022/10/28 00:20:44;;;;;;;110.82;24.77;;;;;;;;;;774841;180;920074;-70
2022/10/28 00:23:10;;;;;;;111.87;24.50;;;;;;;;;;780310;179;919181;-67
2022/10/28 00:25:36;;;;;;;80.80;23.87;;;;;;;;;;775996;180;920913;-67
2022/10/28 00:28:02;;;;;;;148.50;26.33;;;;;;;;;;773742;180;920208;-71
2022/10/28 00:30:28;;;;;;;207.83;26.80;;;;;;;;;;783196;180;817950;-70
2022/10/28 00:32:54;;;;;;;165.67;23.87;;;;;;;;;;767364;177;919221;-67
2022/10/28 00:35:20;;;;;;;88.13;21.73;;;;;;;;;;775597;180;920389;-71
2022/10/28 00:37:45;;;;;;;98.13;22.50;;;;;;;;;;766683;180;898913;-71
2022/10/28 00:40:11;;;;;;;87.47;23.53;;;;;;;;;;760705;181;921215;-71
2022/10/28 00:42:37;;;;;;;90.00;21.17;;;;;;;;;;775827;180;918597;-67
2022/10/28 00:45:03;;;;;;;128.23;24.73;;;;;;;;;;775492;178;917902;-70
2022/10/28 00:47:31;;;;;;;83.97;22.50;;;;;;;;;;779882;180;919510;-66
2022/10/28 00:49:57;;;;;;;103.17;24.00;;;;;;;;;;774864;180;918332;-66
2022/10/28 00:52:23;;;;;;;89.20;24.90;;;;;;;;;;774597;180;816910;-66
2022/10/28 00:54:48;;;;;;;89.70;21.70;;;;;;;;;;773453;180;918076;-65
2022/10/28 00:57:14;;;;;;;91.63;23.83;;;;;;;;;;773002;180;918780;-65
2022/10/28 00:59:40;;;;;;;105.50;23.55;;;;;;;;;;773050;180;919310;-71
2022/10/28 01:02:06;;;;;;;78.87;23.40;;;;;;;;;;772744;178;918372;-70
2022/10/28 01:04:32;;;;;;;93.27;22.40;;;;;;;;;;759675;181;916116;-70
2022/10/28 01:06:58;;;;;;;74.00;21.85;;;;;;;;;;775095;181;919249;-66
2022/10/28 01:09:24;;;;;;;53.07;21.07;;;;;;;;;;773934;178;918096;-66
2022/10/28 01:12:04;;;;;;;89.03;23.53;;;;;;;;;;769613;181;919248;-65
2022/10/28 01:14:36;;;;;;;45.23;20.47;;;;;;;;;;770737;181;920534;-71
2022/10/28 01:17:04;;;;;;;56.07;21.33;;;;;;;;;;768943;181;904238;-66
2022/10/28 01:19:35;;;;;;;52.47;22.00;;;;;;;;;;773803;180;918797;-70
2022/10/28 01:22:06;;;;;;;99.10;23.80;;;;;;;;;;774414;179;915313;-70
2022/10/28 01:24:47;;;;;;;80.80;21.30;;;;;;;;;;776050;180;804383;-66
2022/10/28 01:27:19;;;;;;;51.93;20.97;;;;;;;;;;776533;181;916571;-67
2022/10/28 01:29:48;;;;;;;94.90;22.30;;;;;;;;;;769505;180;918709;-67
2022/10/28 01:32:29;;;;;;;66.37;21.80;;;;;;;;;;775971;180;920841;-70
2022/10/28 01:34:56;;;;;;;75.40;21.90;;;;;;;;;;773587;177;919372;-71
2022/10/28 01:37:22;;;;;;;117.60;22.07;;;;;;;;;;772188;179;903998;-70
2022/10/28 01:39:48;;;;;;;113.13;23.47;;;;;;;;;;780323;177;922972;-71
2022/10/28 01:42:20;;;;;;;92.67;20.90;;;;;;;;;;774893;177;918212;-66
2022/10/28 01:44:48;;;;;;;66.03;21.13;;;;;;;;;;776867;180;817195;-67
2022/10/28 01:47:16;;;;;;;63.53;20.57;;;;;;;;;;774268;180;915630;-67
2022/10/28 01:49:43;;;;;;;58.20;20.67;;;;;;;;;;776674;178;915996;-65
2022/10/28 01:52:09;;;;;;;68.67;21.93;;;;;;;;;;768983;180;918558;-65
2022/10/28 01:54:35;;;;;;;94.00;22.00;;;;;;;;;;774201;178;1017577;-70
2022/10/28 01:57:00;;;;;;;98.37;21.90;;;;;;;;;;778818;180;917302;-71
2022/10/28 01:59:26;;;;;;;165.50;23.93;;;;;;;;;;776793;180;914620;-71
2022/10/28 02:01:52;;;;;;;81.50;21.73;;;;;;;;;;773651;180;915865;-67
2022/10/28 02:04:19;;;;;;;99.80;20.73;;;;;;;;;;770831;182;918196;-67
2022/10/28 02:06:45;;;;;;;102.30;19.73;;;;;;;;;;777984;180;916127;-66
2022/10/28 02:09:11;;;;;;;145.27;22.83;;;;;;;;;;772325;177;819523;-68
2022/10/28 02:11:48;;;;;;;146.17;21.30;;;;;;;;;;771441;180;816628;-67
2022/10/28 02:14:17;;;;;;;178.83;25.97;;;;;;;;;;770903;181;916354;-66
2022/10/28 02:16:58;;;;;;;98.17;18.57;;;;;;;;;;766249;182;831204;-67
2022/10/28 02:19:26;;;;;;;102.57;19.40;;;;;;;;;;768810;180;920157;-70
2022/10/28 02:21:56;;;;;;;53.33;19.30;;;;;;;;;;773966;181;816207;-70
2022/10/28 02:24:22;;;;;;;49.47;16.90;;;;;;;;;;775834;178;816667;-68
2022/10/28 02:26:49;;;;;;;66.37;18.13;;;;;;;;;;781227;180;874155;-67
2022/10/28 02:29:16;;;;;;;49.47;16.13;;;;;;;;;;770404;180;918836;-67
2022/10/28 02:31:50;;;;;;;51.80;17.00;;;;;;;;;;768882;180;922523;-67
2022/10/28 02:34:19;;;;;;;62.40;18.30;;;;;;;;;;771822;178;918956;-70
2022/10/28 02:36:46;;;;;;;83.68;20.05;;;;;;;;;;776647;181;919316;-69
2022/10/28 02:39:12;;;;;;;89.17;17.40;;;;;;;;;;772482;181;918391;-67
2022/10/28 02:41:39;;;;;;;48.03;18.10;;;;;;;;;;772565;181;921275;-70
2022/10/28 02:44:05;;;;;;;90.77;17.43;;;;;;;;;;772406;180;918766;-67
2022/10/28 02:46:31;;;;;;;91.53;19.37;;;;;;;;;;781439;180;875306;-67
2022/10/28 02:48:57;;;;;;;67.37;18.20;;;;;;;;;;770305;179;919474;-68
2022/10/28 02:51:23;;;;;;;135.47;20.40;;;;;;;;;;776111;179;913603;-68
2022/10/28 02:53:50;;;;;;;57.07;17.60;;;;;;;;;;781870;180;915385;-66
2022/10/28 02:56:15;;;;;;;103.47;19.13;;;;;;;;;;769203;180;917238;-66
2022/10/28 02:58:41;;;;;;;76.07;17.60;;;;;;;;;;778047;178;625861;-66
2022/10/28 03:01:07;;;;;;;95.27;20.27;;;;;;;;;;778757;179;916919;-70
2022/10/28 03:03:33;;;;;;;75.20;17.47;;;;;;;;;;773091;180;776119;-69
2022/10/28 03:05:59;;;;;;;57.20;17.70;;;;;;;;;;775534;177;911181;-67
2022/10/28 03:08:25;;;;;;;52.10;18.90;;;;;;;;;;774945;180;817314;-67
2022/10/28 03:10:50;;;;;;;28.53;13.17;;;;;;;;;;780966;178;883104;-67
2022/10/28 03:13:16;;;;;;;83.60;17.67;;;;;;;;;;775400;177;915210;-68
2022/10/28 03:15:42;;;;;;;107.50;17.87;;;;;;;;;;778174;178;630809;-70
2022/10/28 03:18:08;;;;;;;85.00;17.97;;;;;;;;;;780906;180;637941;-66
2022/10/28 03:20:34;;;;;;;93.07;18.50;;;;;;;;;;778464;180;633315;-70
2022/10/28 03:23:00;;;;;;;37.60;16.60;;;;;;;;;;772080;179;636442;-71
2022/10/28 03:25:26;;;;;;;80.03;18.87;;;;;;;;;;772826;180;633301;-70
2022/10/28 03:27:51;;;;;;;82.00;16.93;;;;;;;;;;770913;181;636357;-68
2022/10/28 03:30:17;;;;;;;51.20;16.30;;;;;;;;;;776455;178;625332;-68
2022/10/28 03:32:43;;;;;;;59.73;19.33;;;;;;;;;;775984;179;814734;-67
2022/10/28 03:35:09;;;;;;;62.60;16.47;;;;;;;;;;780331;179;816628;-68
2022/10/28 03:37:35;;;;;;;66.67;18.23;;;;;;;;;;776092;178;919359;-67
2022/10/28 03:40:01;;;;;;;38.37;16.20;;;;;;;;;;774826;179;913622;-68
2022/10/28 03:42:26;;;;;;;60.87;19.10;;;;;;;;;;777930;179;857996;-71
2022/10/28 03:44:52;;;;;;;53.83;18.60;;;;;;;;;;773930;177;918977;-68
2022/10/28 03:47:18;;;;;;;55.07;17.00;;;;;;;;;;774235;180;890213;-71
2022/10/28 03:49:44;;;;;;;32.83;18.03;;;;;;;;;;771980;181;922393;-71
2022/10/28 03:52:10;;;;;;;91.63;18.10;;;;;;;;;;768914;177;915662;-68
2022/10/28 03:54:36;;;;;;;64.70;18.10;;;;;;;;;;762859;181;917920;-68
2022/10/28 03:57:02;;;;;;;62.20;16.80;;;;;;;;;;775375;176;939726;-66
2022/10/28 03:59:27;;;;;;;32.63;16.80;;;;;;;;;;783062;180;940632;-70
2022/10/28 04:01:53;;;;;;;43.83;16.20;;;;;;;;;;776481;177;919965;-70
2022/10/28 04:04:19;;;;;;;39.90;15.93;;;;;;;;;;772356;180;922554;-72
2022/10/28 04:06:45;;;;;;;48.00;18.03;;;;;;;;;;786769;177;917725;-72
2022/10/28 04:09:11;;;;;;;28.77;16.53;;;;;;;;;;774717;177;1022043;-67
2022/10/28 04:11:37;;;;;;;46.50;17.30;;;;;;;;;;774108;181;918179;-68
2022/10/28 04:14:02;;;;;;;30.47;14.67;;;;;;;;;;780471;181;918079;-71
2022/10/28 04:16:28;;;;;;;40.13;16.30;;;;;;;;;;773059;178;915336;-68
2022/10/28 04:18:54;;;;;;;43.93;16.80;;;;;;;;;;772586;178;933013;-68
2022/10/28 04:21:20;;;;;;;58.83;16.80;;;;;;;;;;776878;177;919005;-68
2022/10/28 04:23:46;;;;;;;52.03;16.43;;;;;;;;;;773449;180;919252;-68
2022/10/28 04:26:13;;;;;;;72.67;18.00;;;;;;;;;;779368;180;918945;-73
2022/10/28 04:28:38;;;;;;;77.77;18.53;;;;;;;;;;774853;179;916456;-72
2022/10/28 04:31:04;;;;;;;64.37;17.35;;;;;;;;;;783138;181;919080;-68
2022/10/28 04:33:30;;;;;;;72.90;19.00;;;;;;;;;;769035;178;918987;-67
2022/10/28 04:35:55;;;;;;;55.07;16.73;;;;;;;;;;761914;181;918431;-68
2022/10/28 04:38:21;;;;;;;37.60;15.97;;;;;;;;;;773480;180;816760;-71
2022/10/28 04:40:48;;;;;;;59.70;17.83;;;;;;;;;;774903;178;916119;-72
2022/10/28 04:43:13;;;;;;;22.67;13.07;;;;;;;;;;773966;180;918207;-72
2022/10/28 04:45:39;;;;;;;42.10;17.13;;;;;;;;;;775365;180;919431;-68
2022/10/28 04:48:05;;;;;;;43.33;14.33;;;;;;;;;;771565;181;816163;-71
2022/10/28 04:50:31;;;;;;;94.80;20.33;;;;;;;;;;771395;178;897096;-73
2022/10/28 04:52:57;;;;;;;90.67;19.57;;;;;;;;;;769444;181;918340;-73
2022/10/28 04:55:23;;;;;;;72.22;17.48;;;;;;;;;;766286;181;919096;-68
2022/10/28 04:57:53;;;;;;;104.23;18.37;;;;;;;;;;772365;176;917349;-67
2022/10/28 05:00:19;;;;;;;103.72;18.05;;;;;;;;;;775653;177;919297;-73
2022/10/28 05:02:45;;;;;;;51.83;16.37;;;;;;;;;;778001;181;919600;-72
2022/10/28 05:05:11;;;;;;;39.07;16.00;;;;;;;;;;771894;179;920550;-69
2022/10/28 05:07:36;;;;;;;33.80;16.30;;;;;;;;;;773591;178;924627;-68
2022/10/28 05:10:02;;;;;;;47.77;17.50;;;;;;;;;;778635;177;930527;-72
2022/10/28 05:12:28;;;;;;;47.07;18.63;;;;;;;;;;772746;180;917285;-68
2022/10/28 05:14:54;;;;;;;55.38;14.73;;;;;;;;;;770173;181;816195;-69
2022/10/28 05:17:20;;;;;;;72.93;15.07;;;;;;;;;;773506;181;920495;-72
2022/10/28 05:19:46;;;;;;;61.97;15.00;;;;;;;;;;779052;177;920084;-68
2022/10/28 05:22:12;;;;;;;52.07;15.43;;;;;;;;;;777017;181;815219;-72
2022/10/28 05:24:38;;;;;;;90.80;17.70;;;;;;;;;;773686;179;904735;-68
2022/10/28 05:27:03;;;;;;;63.97;16.65;;;;;;;;;;781000;180;918947;-69
2022/10/28 05:29:29;;;;;;;36.57;16.90;;;;;;;;;;774181;177;918699;-73
2022/10/28 05:31:55;;;;;;;29.33;15.03;;;;;;;;;;762168;181;919838;-68
2022/10/28 05:34:21;;;;;;;25.52;15.10;;;;;;;;;;768203;181;918956;-72
2022/10/28 05:36:49;;;;;;;17.67;12.13;;;;;;;;;;776433;180;918245;-70
2022/10/28 05:39:13;;;;;;;34.20;14.40;;;;;;;;;;771322;177;918777;-70
2022/10/28 05:41:39;;;;;;;65.57;17.17;;;;;;;;;;766526;180;916714;-68
2022/10/28 05:44:05;;;;;;;58.87;16.57;;;;;;;;;;779795;178;908838;-69
2022/10/28 05:46:30;;;;;;;68.03;17.90;;;;;;;;;;776873;180;911166;-69
2022/10/28 05:48:56;;;;;;;46.70;15.77;;;;;;;;;;772531;180;919017;-72
2022/10/28 05:51:22;;;;;;;24.77;14.50;;;;;;;;;;775981;179;895965;-69
2022/10/28 05:53:50;;;;;;;19.53;12.93;;;;;;;;;;773712;179;919477;-69
2022/10/28 05:56:14;;;;;;;18.47;11.10;;;;;;;;;;772654;180;917663;-69
2022/10/28 05:58:40;;;;;;;37.43;14.17;;;;;;;;;;772783;178;940226;-72
2022/10/28 06:01:06;;;;;;;28.43;12.43;;;;;;;;;;764334;182;917944;-72
2022/10/28 06:03:31;;;;;;;21.10;13.90;;;;;;;;;;762029;181;920127;-72
2022/10/28 06:05:57;;;;;;;31.57;11.40;;;;;;;;;;770412;180;938711;-72
2022/10/28 06:08:23;;;;;;;42.00;16.33;;;;;;;;;;778630;180;839066;-72
2022/10/28 06:10:49;;;;;;;21.20;13.47;;;;;;;;;;773191;177;917749;-73
2022/10/28 06:13:15;;;;;;;16.30;12.07;;;;;;;;;;770672;181;918800;-72
2022/10/28 06:15:41;;;;;;;18.40;12.47;;;;;;;;;;776325;180;916630;-69
2022/10/28 06:18:07;;;;;;;20.27;13.00;;;;;;;;;;772066;180;848045;-70
2022/10/28 06:20:32;;;;;;;27.13;13.97;;;;;;;;;;773277;179;915048;-72
2022/10/28 06:22:58;;;;;;;58.23;17.97;;;;;;;;;;780331;178;917325;-68
2022/10/28 06:25:24;;;;;;;46.37;16.17;;;;;;;;;;767397;175;862898;-72
2022/10/28 06:27:51;;;;;;;48.60;18.97;;;;;;;;;;766698;181;919259;-72
2022/10/28 06:30:17;;;;;;;55.43;16.60;;;;;;;;;;766342;182;917026;-72
2022/10/28 06:32:43;;;;;;;34.57;15.50;;;;;;;;;;771577;182;919349;-72
2022/10/28 06:35:08;;;;;;;31.83;15.70;;;;;;;;;;766088;181;919484;-72
2022/10/28 06:37:34;;;;;;;37.37;15.70;;;;;;;;;;768665;181;918637;-72
2022/10/28 06:40:00;;;;;;;34.57;16.40;;;;;;;;;;775249;182;747676;-72
2022/10/28 06:42:26;;;;;;;27.90;14.85;;;;;;;;;;767512;182;816187;-72
2022/10/28 06:44:53;;;;;;;22.50;12.67;;;;;;;;;;767997;181;816731;-72
2022/10/28 06:47:18;;;;;;;24.53;14.63;;;;;;;;;;773513;182;719499;-72
2022/10/28 06:49:44;;;;;;;25.50;15.80;;;;;;;;;;765515;179;917189;-72
2022/10/28 06:52:09;;;;;;;28.17;13.97;;;;;;;;;;765685;182;919159;-72
2022/10/28 06:54:35;;;;;;;27.77;14.40;;;;;;;;;;764183;181;919085;-73
2022/10/28 06:57:01;;;;;;;28.53;15.47;;;;;;;;;;762106;181;918574;-72
2022/10/28 06:59:27;;;;;;;26.63;14.17;;;;;;;;;;766814;181;919479;-72
2022/10/28 07:01:53;;;;;;;22.93;13.90;;;;;;;;;;761324;182;908358;-72
2022/10/28 07:04:19;;;;;;;24.10;14.53;;;;;;;;;;770818;181;918691;-73
2022/10/28 07:06:44;;;;;;;23.23;12.53;;;;;;;;;;761348;180;1022403;-72
2022/10/28 07:09:10;;;;;;;24.57;13.70;;;;;;;;;;761784;182;955318;-73
2022/10/28 07:11:36;;;;;;;18.53;12.57;;;;;;;;;;768683;182;919841;-73
2022/10/28 07:14:02;;;;;;;20.60;14.10;;;;;;;;;;765370;181;916709;-72
2022/10/28 07:16:28;;;;;;;26.87;15.57;;;;;;;;;;766897;182;816763;-73
2022/10/28 07:18:54;;;;;;;21.62;15.00;;;;;;;;;;767477;182;1119655;-70
2022/10/28 07:21:23;;;;;;;25.43;14.73;;;;;;;;;;757397;175;800674;-73
2022/10/28 07:23:46;;;;;;;20.90;15.33;;;;;;;;;;749893;183;918409;-73
2022/10/28 07:26:12;;;;;;;22.50;13.47;;;;;;;;;;751266;186;807893;-71
2022/10/28 07:28:38;;;;;;;21.80;13.83;;;;;;;;;;754710;186;817326;-72
2022/10/28 07:31:03;;;;;;;21.00;13.03;;;;;;;;;;748901;185;918822;-73
2022/10/28 07:33:29;;;;;;;24.08;13.65;;;;;;;;;;748899;185;1021893;-73
2022/10/28 07:35:55;;;;;;;21.37;13.10;;;;;;;;;;753209;187;917592;-73
2022/10/28 07:38:21;;;;;;;24.27;15.23;;;;;;;;;;750845;187;919319;-73
2022/10/28 07:40:47;;;;;;;18.90;12.77;;;;;;;;;;752783;185;815562;-73
2022/10/28 07:43:13;;;;;;;23.00;13.93;;;;;;;;;;757817;183;918537;-73
2022/10/28 07:45:39;;;;;;;28.60;15.77;;;;;;;;;;749591;186;919059;-72
2022/10/28 07:48:05;;;;;;;18.93;12.80;;;;;;;;;;747929;187;918457;-73
2022/10/28 07:50:32;;;;;;;19.87;13.03;;;;;;;;;;748816;186;919077;-72
2022/10/28 07:52:57;;;;;;;22.80;14.10;;;;;;;;;;753301;186;1021198;-73
2022/10/28 07:55:24;;;;;;;23.00;13.47;;;;;;;;;;750372;187;919208;-73
2022/10/28 07:57:49;;;;;;;21.40;14.27;;;;;;;;;;752038;186;922706;-73
2022/10/28 08:00:15;;;;;;;23.20;14.60;;;;;;;;;;753243;186;918823;-73
2022/10/28 08:02:41;;;;;;;24.07;13.73;;;;;;;;;;730766;188;919353;-71
2022/10/28 08:05:07;;;;;;;18.77;12.67;;;;;;;;;;746787;187;1021936;-73
2022/10/28 08:07:33;;;;;;;25.40;15.30;;;;;;;;;;752626;186;918277;-72
2022/10/28 08:09:59;;;;;;;25.03;15.03;;;;;;;;;;747649;187;918751;-73
2022/10/28 08:12:26;;;;;;;19.20;12.77;;;;;;;;;;750013;186;919079;-73
2022/10/28 08:14:50;;;;;;;17.10;12.93;;;;;;;;;;746829;186;919201;-73
2022/10/28 08:17:16;;;;;;;18.07;12.67;;;;;;;;;;755985;184;815333;-72
2022/10/28 08:19:42;;;;;;;19.40;14.10;;;;;;;;;;744987;187;918288;-72
2022/10/28 08:22:08;;;;;;;23.77;12.97;;;;;;;;;;745783;187;918535;-71
2022/10/28 08:24:34;;;;;;;18.37;12.87;;;;;;;;;;753293;184;818099;-73
2022/10/28 08:27:00;;;;;;;20.97;13.53;;;;;;;;;;746751;186;919398;-72
2022/10/28 08:29:25;;;;;;;19.35;12.80;;;;;;;;;;745706;186;919072;-73
2022/10/28 08:31:51;;;;;;;21.07;13.53;;;;;;;;;;752426;187;918963;-73
2022/10/28 08:34:17;;;;;;;22.27;13.33;;;;;;;;;;746084;187;919339;-72
2022/10/28 08:36:43;;;;;;;23.07;14.50;;;;;;;;;;747912;187;920836;-73
2022/10/28 08:39:09;;;;;;;25.30;14.50;;;;;;;;;;746518;186;1021712;-73
2022/10/28 08:41:35;;;;;;;23.40;15.50;;;;;;;;;;739453;187;915865;-72
2022/10/28 08:44:06;;;;;;;20.63;14.20;;;;;;;;;;749110;185;880985;-73
2022/10/28 08:46:39;;;;;;;21.40;14.30;;;;;;;;;;750260;186;918396;-72
2022/10/28 08:49:05;;;;;;;21.97;13.10;;;;;;;;;;748444;186;919254;-73
2022/10/28 08:51:34;;;;;;;21.07;12.73;;;;;;;;;;753082;187;912913;-73
2022/10/28 08:54:00;;;;;;;19.07;11.43;;;;;;;;;;746051;186;1020885;-71
2022/10/28 08:56:27;;;;;;;18.33;12.40;;;;;;;;;;748485;185;918650;-72
2022/10/28 08:58:55;;;;;;;21.27;13.97;;;;;;;;;;752941;187;919236;-72
2022/10/28 09:01:19;;;;;;;18.03;12.17;;;;;;;;;;747797;185;918475;-72
2022/10/28 09:03:45;;;;;;;19.40;12.47;;;;;;;;;;749118;186;868357;-75
2022/10/28 09:06:10;;;;;;;23.20;11.70;;;;;;;;;;748511;186;815913;-73
2022/10/28 09:08:41;;;;;;;16.53;11.33;;;;;;;;;;745205;187;912560;-72
2022/10/28 09:11:08;;;;;;;22.47;11.30;;;;;;;;;;742533;186;918257;-72
2022/10/28 09:13:39;;;;;;;18.13;11.07;;;;;;;;;;747839;186;820450;-73
2022/10/28 09:16:05;;;;;;;15.23;10.10;;;;;;;;;;747930;187;918949;-73
2022/10/28 09:18:44;;;;;;;20.50;10.23;;;;;;;;;;744178;187;816707;-73
2022/10/28 09:21:10;;;;;;;15.80;10.55;;;;;;;;;;745699;187;917359;-73
2022/10/28 09:23:36;;;;;;;12.37;9.43;;;;;;;;;;747532;186;918002;-73
2022/10/28 09:26:06;;;;;;;17.67;10.80;;;;;;;;;;747746;187;917533;-73
2022/10/28 09:28:37;;;;;;;18.27;12.70;;;;;;;;;;749096;184;922300;-72
2022/10/28 09:31:03;;;;;;;15.40;10.27;;;;;;;;;;745776;184;1020382;-73
2022/10/28 09:33:41;;;;;;;17.67;9.25;;;;;;;;;;745774;186;918726;-73
2022/10/28 09:36:06;;;;;;;14.43;9.20;;;;;;;;;;746346;186;920238;-73
2022/10/28 09:38:32;;;;;;;16.73;11.00;;;;;;;;;;751214;187;920767;-73
2022/10/28 09:40:59;;;;;;;19.40;11.07;;;;;;;;;;746177;186;919348;-72
2022/10/28 09:43:25;;;;;;;12.50;8.97;;;;;;;;;;748378;187;817571;-73
2022/10/28 09:45:51;;;;;;;16.13;10.20;;;;;;;;;;747342;186;919880;-73
2022/10/28 09:48:18;;;;;;;15.17;10.40;;;;;;;;;;743379;186;922534;-73
2022/10/28 09:50:44;;;;;;;17.30;11.07;;;;;;;;;;741487;187;735105;-73
2022/10/28 09:53:12;;;;;;;18.77;10.27;;;;;;;;;;750286;184;819102;-73
2022/10/28 09:55:38;;;;;;;12.97;8.70;;;;;;;;;;749715;185;909666;-73
2022/10/28 09:58:03;;;;;;;14.17;9.07;;;;;;;;;;742533;187;918494;-72
2022/10/28 10:00:29;;;;;;;13.60;10.10;;;;;;;;;;747273;187;919187;-73
2022/10/28 10:02:56;;;;;;;13.40;10.30;;;;;;;;;;753859;187;916723;-72
2022/10/28 10:05:22;;;;;;;14.40;9.97;;;;;;;;;;748422;186;915525;-73
2022/10/28 10:07:50;;;;;;;13.83;9.77;;;;;;;;;;747809;187;917964;-73
2022/10/28 10:10:28;;;;;;;15.93;10.47;;;;;;;;;;747534;187;916935;-72
2022/10/28 10:12:54;;;;;;;14.97;8.90;;;;;;;;;;748380;186;911074;-74
2022/10/28 10:15:24;;;;;;;12.57;9.63;;;;;;;;;;740661;186;907839;-73
2022/10/28 10:17:50;;;;;;;15.00;10.20;;;;;;;;;;748042;187;911803;-72
2022/10/28 10:20:17;;;;;;;14.10;9.83;;;;;;;;;;747711;186;911628;-73
2022/10/28 10:22:42;;;;;;;13.50;9.63;;;;;;;;;;752133;186;919852;-73
2022/10/28 10:25:14;;;;;;;14.57;10.50;;;;;;;;;;748426;187;816548;-73
2022/10/28 10:27:40;;;;;;;15.07;9.53;;;;;;;;;;749301;185;838574;-73
2022/10/28 10:30:07;;;;;;;14.20;10.75;;;;;;;;;;750671;186;816076;-73
2022/10/28 10:32:33;;;;;;;12.40;9.17;;;;;;;;;;751792;187;815993;-73
2022/10/28 10:35:00;;;;;;;19.67;10.63;;;;;;;;;;750417;187;919628;-73
2022/10/28 10:37:27;;;;;;;15.60;10.50;;;;;;;;;;748995;186;917676;-72
2022/10/28 10:39:57;;;;;;;13.33;9.93;;;;;;;;;;751435;187;815365;-73
2022/10/28 10:42:24;;;;;;;15.83;10.40;;;;;;;;;;749877;188;891128;-73
2022/10/28 10:44:48;;;;;;;15.30;9.70;;;;;;;;;;745324;186;918551;-73
2022/10/28 10:47:14;;;;;;;13.63;9.80;;;;;;;;;;749289;187;916532;-73
2022/10/28 10:49:40;;;;;;;13.20;9.97;;;;;;;;;;753047;187;919289;-73
2022/10/28 10:52:07;;;;;;;13.60;10.33;;;;;;;;;;747633;186;936409;-73
2022/10/28 10:54:33;;;;;;;18.87;9.50;;;;;;;;;;736467;189;918075;-73
2022/10/28 10:57:04;;;;;;;12.47;9.57;;;;;;;;;;750319;186;917912;-73
2022/10/28 10:59:30;;;;;;;11.47;8.27;;;;;;;;;;750590;187;920741;-73
2022/10/28 11:01:56;;;;;;;16.23;9.67;;;;;;;;;;745316;187;917893;-73
2022/10/28 11:04:22;;;;;;;18.02;12.13;;;;;;;;;;751911;186;1020483;-73
2022/10/28 11:06:48;;;;;;;13.10;10.53;;;;;;;;;;755407;186;917470;-73
2022/10/28 11:09:20;;;;;;;17.93;11.40;;;;;;;;;;745916;186;917184;-73
2022/10/28 11:11:45;;;;;;;17.50;10.23;;;;;;;;;;748798;187;918377;-74
2022/10/28 11:14:28;;;;;;;16.30;11.37;;;;;;;;;;748338;185;918744;-73
2022/10/28 11:16:54;;;;;;;14.30;9.90;;;;;;;;;;744018;189;961538;-72
2022/10/28 11:19:23;;;;;;;15.07;11.57;;;;;;;;;;755758;187;918610;-73
2022/10/28 11:21:49;;;;;;;15.10;11.97;;;;;;;;;;750463;185;1020797;-73
2022/10/28 11:24:17;;;;;;;12.97;10.03;;;;;;;;;;747144;185;917685;-73
2022/10/28 11:26:44;;;;;;;14.87;10.00;;;;;;;;;;751872;187;817228;-73
2022/10/28 11:29:11;;;;;;;13.30;10.17;;;;;;;;;;747500;185;918754;-72
2022/10/28 11:31:44;;;;;;;16.13;11.80;;;;;;;;;;746698;187;1017260;-72
2022/10/28 11:34:15;;;;;;;16.60;10.83;;;;;;;;;;748122;186;918872;-72
2022/10/28 11:36:41;;;;;;;16.60;11.67;;;;;;;;;;752491;187;918459;-72
2022/10/28 11:39:22;;;;;;;14.67;11.53;;;;;;;;;;747293;186;817073;-72
2022/10/28 11:41:51;;;;;;;17.10;12.30;;;;;;;;;;747917;186;1019754;-73
2022/10/28 11:44:22;;;;;;;13.07;9.00;;;;;;;;;;745915;187;919317;-73
2022/10/28 11:47:03;;;;;;;15.93;11.70;;;;;;;;;;754168;187;917703;-73
2022/10/28 11:49:35;;;;;;;13.90;10.07;;;;;;;;;;742353;187;916969;-73
2022/10/28 11:52:03;;;;;;;14.40;10.00;;;;;;;;;;748568;182;1020518;-71
2022/10/28 11:54:46;;;;;;;17.07;11.97;;;;;;;;;;760396;185;914106;-73
2022/10/28 11:57:13;;;;;;;15.73;10.90;;;;;;;;;;756046;185;919624;-70
2022/10/28 11:59:57;;;;;;;14.10;10.43;;;;;;;;;;754213;186;814303;-70
2022/10/28 12:02:23;;;;;;;13.63;10.60;;;;;;;;;;747508;185;922084;-69
2022/10/28 12:05:04;;;;;;;15.73;12.00;;;;;;;;;;755809;185;912608;-69
2022/10/28 12:07:33;;;;;;;12.67;9.93;;;;;;;;;;752104;186;918897;-69
2022/10/28 12:10:04;;;;;;;15.33;9.17;;;;;;;;;;756691;186;918908;-70
2022/10/28 12:12:34;;;;;;;14.30;10.10;;;;;;;;;;758100;185;922027;-69
2022/10/28 12:15:15;;;;;;;14.00;10.83;;;;;;;;;;751991;186;929151;-71
2022/10/28 12:17:56;;;;;;;15.30;10.80;;;;;;;;;;755623;183;919720;-71
2022/10/28 12:20:24;;;;;;;14.53;10.70;;;;;;;;;;756298;185;919094;-69
2022/10/28 12:22:48;;;;;;;12.73;9.40;;;;;;;;;;757766;185;918768;-69
2022/10/28 12:25:14;;;;;;;13.33;9.97;;;;;;;;;;758356;185;919519;-69
2022/10/28 12:27:40;;;;;;;14.50;9.67;;;;;;;;;;754549;185;919574;-69
2022/10/28 12:30:13;;;;;;;16.00;10.40;;;;;;;;;;752975;185;817487;-70
2022/10/28 12:32:39;;;;;;;12.30;9.20;;;;;;;;;;747294;185;841268;-69
2022/10/28 12:35:05;;;;;;;20.47;10.87;;;;;;;;;;760088;186;816838;-69
2022/10/28 12:37:31;;;;;;;15.60;11.37;;;;;;;;;;756346;185;920287;-69
2022/10/28 12:39:56;;;;;;;17.63;11.10;;;;;;;;;;754833;186;917384;-70
2022/10/28 12:42:24;;;;;;;14.10;9.93;;;;;;;;;;756625;185;816909;-70
2022/10/28 12:44:50;;;;;;;13.13;9.77;;;;;;;;;;752826;186;918597;-69
2022/10/28 12:47:31;;;;;;;12.67;9.00;;;;;;;;;;754784;186;866878;-71
2022/10/28 12:49:59;;;;;;;15.80;10.87;;;;;;;;;;747257;186;922371;-70
2022/10/28 12:52:30;;;;;;;11.53;9.57;;;;;;;;;;757963;185;916836;-69
2022/10/28 12:54:56;;;;;;;14.80;10.57;;;;;;;;;;754127;186;914454;-69
2022/10/28 12:57:22;;;;;;;16.00;11.80;;;;;;;;;;751486;186;817634;-69
2022/10/28 12:59:48;;;;;;;12.97;10.60;;;;;;;;;;754947;185;988412;-69
2022/10/28 13:02:14;;;;;;;13.27;10.70;;;;;;;;;;756653;186;918461;-70
2022/10/28 13:04:39;;;;;;;16.10;11.47;;;;;;;;;;755324;184;919289;-69
2022/10/28 13:07:11;;;;;;;12.70;9.90;;;;;;;;;;753485;186;816800;-71
2022/10/28 13:09:40;;;;;;;10.93;9.10;;;;;;;;;;753844;186;817293;-68
2022/10/28 13:12:06;;;;;;;13.63;9.50;;;;;;;;;;758224;186;919441;-70
2022/10/28 13:14:47;;;;;;;15.40;10.40;;;;;;;;;;755045;185;918958;-71
2022/10/28 13:17:15;;;;;;;13.52;10.25;;;;;;;;;;747837;186;921238;-70
2022/10/28 13:19:57;;;;;;;13.97;10.33;;;;;;;;;;751975;186;915872;-70
2022/10/28 13:22:43;;;;;;;13.00;9.80;;;;;;;;;;752549;186;917661;-70
2022/10/28 13:25:19;;;;;;;15.50;9.63;;;;;;;;;;742598;184;866990;-69
2022/10/28 13:27:45;;;;;;;24.73;10.47;;;;;;;;;;755125;186;918431;-69
2022/10/28 13:30:15;;;;;;;15.87;10.77;;;;;;;;;;761724;183;920494;-71
2022/10/28 13:32:41;;;;;;;17.30;11.90;;;;;;;;;;754758;185;922693;-69
2022/10/28 13:35:10;;;;;;;14.97;11.23;;;;;;;;;;754233;185;921869;-70
2022/10/28 13:37:38;;;;;;;15.30;10.33;;;;;;;;;;753015;185;919835;-69
2022/10/28 13:40:02;;;;;;;15.20;11.10;;;;;;;;;;758518;185;937000;-69
2022/10/28 13:42:29;;;;;;;14.87;10.77;;;;;;;;;;755201;185;919006;-70
2022/10/28 13:44:55;;;;;;;16.37;10.48;;;;;;;;;;752932;186;919483;-69
2022/10/28 13:47:23;;;;;;;12.10;9.60;;;;;;;;;;757446;185;919402;-70
2022/10/28 13:49:54;;;;;;;16.13;11.40;;;;;;;;;;754010;186;819128;-70
2022/10/28 13:52:20;;;;;;;16.40;11.07;;;;;;;;;;755266;186;906628;-70
2022/10/28 13:54:54;;;;;;;18.53;12.23;;;;;;;;;;753715;185;917406;-70
2022/10/28 13:57:23;;;;;;;17.40;11.50;;;;;;;;;;756408;186;918756;-68
2022/10/28 13:59:50;;;;;;;19.12;11.52;;;;;;;;;;760570;185;917217;-68
2022/10/28 14:02:20;;;;;;;22.03;14.10;;;;;;;;;;753740;186;934625;-69
2022/10/28 14:04:45;;;;;;;17.90;13.20;;;;;;;;;;750112;185;918819;-70